Time;durP1;ratioP1;P1;durP2;ratioP2;P2;SDS_P1;SDS_P2;PMS_P1;PMS_P2;Temp;Humidity;BMP_temperature;BMP_pressure;BME280_temperature;BME280_humidity;BME280_pressure;Samples;Min_cycle;Max_cycle;Signal;HPM_P1;HPM_P2
2022/07/06 00:01:19;;;;;;;;;;;;;;;;;;5083137;28;897;-64
2022/07/06 00:03:44;;;;;;;;;;;;;;;;;;5083017;28;834;-64
2022/07/06 00:06:09;;;;;;;;;;;;;;;;;;5082140;28;1205;-64
2022/07/06 00:08:34;;;;;;;;;;;;;;;;;;5082807;28;1960;-64
2022/07/06 00:11:00;;;;;;;;;;;;;;;;;;5082705;28;988;-64
2022/07/06 00:13:25;;;;;;;;;;;;;;;;;;5082839;28;985;-64
2022/07/06 00:15:50;;;;;;;;;;;;;;;;;;5082587;28;1032;-64
2022/07/06 00:18:16;;;;;;;;;;;;;;;;;;5082473;28;1231;-64
2022/07/06 00:20:41;;;;;;;;;;;;;;;;;;5082453;28;1031;-64
2022/07/06 00:23:06;;;;;;;;;;;;;;;;;;5082772;28;1114;-64
2022/07/06 00:25:31;;;;;;;;;;;;;;;;;;5082433;28;786;-64
2022/07/06 00:27:56;;;;;;;;;;;;;;;;;;5082437;28;1893;-64
2022/07/06 00:30:22;;;;;;;;;;;;;;;;;;5082287;28;885;-64
2022/07/06 00:32:47;;;;;;;;;;;;;;;;;;5082795;28;825;-64
2022/07/06 00:35:12;;;;;;;;;;;;;;;;;;5082326;28;972;-64
2022/07/06 00:37:37;;;;;;;;;;;;;;;;;;5081082;28;1192;-63
2022/07/06 00:40:02;;;;;;;;;;;;;;;;;;5082331;28;952;-63
2022/07/06 00:42:28;;;;;;;;;;;;;;;;;;5082155;28;782;-64
2022/07/06 00:44:53;;;;;;;;;;;;;;;;;;5082411;28;980;-63
2022/07/06 00:47:18;;;;;;;;;;;;;;;;;;5081644;28;1898;-64
2022/07/06 00:52:27;;;;;;;;;;;;;;;;;;5062069;28;648;-64
2022/07/06 00:54:53;;;;;;;;;;;;;;;;;;5062022;28;894;-64
2022/07/06 00:57:19;;;;;;;;;;;;;;;;;;5061557;28;1208;-64
2022/07/06 00:59:44;;;;;;;;;;;;;;;;;;5062152;28;873;-64
2022/07/06 01:02:09;;;;;;;;;;;;;;;;;;5061626;28;845;-63
2022/07/06 01:04:34;;;;;;;;;;;;;;;;;;5062004;28;779;-64
2022/07/06 01:07:00;;;;;;;;;;;;;;;;;;5061467;28;1894;-64
2022/07/06 01:09:25;;;;;;;;;;;;;;;;;;5061712;28;837;-63
2022/07/06 01:11:51;;;;;;;;;;;;;;;;;;5061827;28;807;-64
2022/07/06 01:14:17;;;;;;;;;;;;;;;;;;5061653;28;937;-64
2022/07/06 01:16:43;;;;;;;;;;;;;;;;;;5060412;28;1172;-64
2022/07/06 01:19:08;;;;;;;;;;;;;;;;;;5061624;28;858;-64
2022/07/06 01:21:33;;;;;;;;;;;;;;;;;;5061593;28;1028;-63
2022/07/06 01:23:58;;;;;;;;;;;;;;;;;;5061422;28;1236;-63
2022/07/06 01:26:23;;;;;;;;;;;;;;;;;;5061187;28;1894;-64
2022/07/06 01:28:50;;;;;;;;;;;;;;;;;;5061387;28;977;-64
2022/07/06 01:31:17;;;;;;;;;;;;;;;;;;5061395;28;857;-64
2022/07/06 01:33:43;;;;;;;;;;;;;;;;;;5076907;28;862;-63
2022/07/06 01:36:08;;;;;;;;;;;;;;;;;;5061205;28;1205;-64
2022/07/06 01:38:43;;;;;;;;;;;;;;;;;;5061268;28;858;-63
2022/07/06 01:41:08;;;;;;;;;;;;;;;;;;5061344;28;807;-64
2022/07/06 01:43:33;;;;;;;;;;;;;;;;;;5061782;28;985;-64
2022/07/06 01:45:58;;;;;;;;;;;;;;;;;;5061164;28;830;-64
2022/07/06 01:48:23;;;;;;;;;;;;;;;;;;5060942;28;1893;-64
2022/07/06 01:50:48;;;;;;;;;;;;;;;;;;5060992;28;886;-64
2022/07/06 01:53:13;;;;;;;;;;;;;;;;;;5061215;28;815;-64
2022/07/06 01:55:39;;;;;;;;;;;;;;;;;;5060981;28;964;-64
2022/07/06 01:58:04;;;;;;;;;;;;;;;;;;5060941;28;1184;-64
2022/07/06 02:00:29;;;;;;;;;;;;;;;;;;5060837;28;826;-64
2022/07/06 02:02:54;;;;;;;;;;;;;;;;;;5061211;28;846;-64
2022/07/06 02:05:19;;;;;;;;;;;;;;;;;;5061124;28;791;-64
2022/07/06 02:07:45;;;;;;;;;;;;;;;;;;5060609;28;1910;-65
2022/07/06 02:10:10;;;;;;;;;;;;;;;;;;5061059;28;1000;-65
2022/07/06 02:12:35;;;;;;;;;;;;;;;;;;5059211;28;1304;-65
2022/07/06 02:15:00;;;;;;;;;;;;;;;;;;5061041;28;877;-65
2022/07/06 02:17:25;;;;;;;;;;;;;;;;;;5060465;28;1286;-65
2022/07/06 02:19:51;;;;;;;;;;;;;;;;;;5061135;28;838;-65
2022/07/06 02:22:16;;;;;;;;;;;;;;;;;;5060738;28;996;-65
2022/07/06 02:24:41;;;;;;;;;;;;;;;;;;5060920;28;992;-65
2022/07/06 02:27:06;;;;;;;;;;;;;;;;;;5060220;28;1910;-65
2022/07/06 02:29:31;;;;;;;;;;;;;;;;;;5063606;28;1027;-65
2022/07/06 02:31:56;;;;;;;;;;;;;;;;;;5064414;28;941;-65
2022/07/06 02:34:22;;;;;;;;;;;;;;;;;;5063991;28;866;-65
2022/07/06 02:36:47;;;;;;;;;;;;;;;;;;5063922;28;1184;-65
2022/07/06 02:39:12;;;;;;;;;;;;;;;;;;5063987;28;786;-65
2022/07/06 02:41:37;;;;;;;;;;;;;;;;;;5064184;28;811;-65
2022/07/06 02:44:03;;;;;;;;;;;;;;;;;;5064036;28;992;-64
2022/07/06 02:46:28;;;;;;;;;;;;;;;;;;5063856;28;1893;-65
2022/07/06 02:48:53;;;;;;;;;;;;;;;;;;5063928;28;1020;-65
2022/07/06 02:51:18;;;;;;;;;;;;;;;;;;5064029;28;854;-65
2022/07/06 02:53:44;;;;;;;;;;;;;;;;;;5063722;28;1040;-65
2022/07/06 02:56:09;;;;;;;;;;;;;;;;;;5063743;28;1274;-64
2022/07/06 02:58:34;;;;;;;;;;;;;;;;;;5063782;28;885;-65
2022/07/06 03:00:59;;;;;;;;;;;;;;;;;;5063674;28;941;-65
2022/07/06 03:03:24;;;;;;;;;;;;;;;;;;5063930;28;857;-65
2022/07/06 03:05:49;;;;;;;;;;;;;;;;;;5063548;28;965;-65
2022/07/06 03:08:15;;;;;;;;;;;;;;;;;;5063547;28;1969;-65
2022/07/06 03:10:40;;;;;;;;;;;;;;;;;;5063550;28;864;-65
2022/07/06 03:13:05;;;;;;;;;;;;;;;;;;5063657;28;984;-65
2022/07/06 03:15:31;;;;;;;;;;;;;;;;;;5063595;28;791;-65
2022/07/06 03:17:56;;;;;;;;;;;;;;;;;;5063315;28;1243;-65
2022/07/06 03:20:21;;;;;;;;;;;;;;;;;;5063307;28;936;-65
2022/07/06 03:22:46;;;;;;;;;;;;;;;;;;5063430;28;838;-65
2022/07/06 03:25:11;;;;;;;;;;;;;;;;;;5063384;28;989;-65
2022/07/06 03:27:36;;;;;;;;;;;;;;;;;;5063166;28;1901;-65
2022/07/06 03:30:02;;;;;;;;;;;;;;;;;;5063469;28;1020;-65
2022/07/06 03:32:27;;;;;;;;;;;;;;;;;;5063327;28;1084;-65
2022/07/06 03:34:53;;;;;;;;;;;;;;;;;;5063316;28;859;-65
2022/07/06 03:37:18;;;;;;;;;;;;;;;;;;5062900;28;1192;-65
2022/07/06 03:39:44;;;;;;;;;;;;;;;;;;5062625;28;1057;-65
2022/07/06 03:42:09;;;;;;;;;;;;;;;;;;5062933;28;1029;-65
2022/07/06 03:44:35;;;;;;;;;;;;;;;;;;5063275;28;1028;-65
2022/07/06 03:47:00;;;;;;;;;;;;;;;;;;5062540;28;1902;-65
2022/07/06 03:49:27;;;;;;;;;;;;;;;;;;5063168;28;1005;-65
2022/07/06 03:51:52;;;;;;;;;;;;;;;;;;5062893;28;873;-65
2022/07/06 03:54:17;;;;;;;;;;;;;;;;;;5063005;28;1032;-65
2022/07/06 03:56:43;;;;;;;;;;;;;;;;;;5062802;28;1195;-65
2022/07/06 03:59:08;;;;;;;;;;;;;;;;;;5062855;28;795;-65
2022/07/06 04:01:33;;;;;;;;;;;;;;;;;;5062942;28;989;-64
2022/07/06 04:03:58;;;;;;;;;;;;;;;;;;5062861;28;858;-65
2022/07/06 04:06:23;;;;;;;;;;;;;;;;;;5062649;28;1168;-65
2022/07/06 04:08:49;;;;;;;;;;;;;;;;;;5062477;28;1894;-65
2022/07/06 04:11:14;;;;;;;;;;;;;;;;;;5062778;28;1135;-65
2022/07/06 04:13:39;;;;;;;;;;;;;;;;;;5062666;28;1008;-65
2022/07/06 04:16:05;;;;;;;;;;;;;;;;;;5062691;28;1254;-65
2022/07/06 04:18:31;;;;;;;;;;;;;;;;;;5062374;28;842;-65
2022/07/06 04:20:57;;;;;;;;;;;;;;;;;;5062649;28;814;-64
2022/07/06 04:23:22;;;;;;;;;;;;;;;;;;5062690;28;814;-65
2022/07/06 04:25:47;;;;;;;;;;;;;;;;;;5062383;28;767;-65
2022/07/06 04:28:13;;;;;;;;;;;;;;;;;;5062219;28;1889;-65
2022/07/06 04:30:38;;;;;;;;;;;;;;;;;;5062347;28;918;-65
2022/07/06 04:33:03;;;;;;;;;;;;;;;;;;5062478;28;818;-65
2022/07/06 04:35:28;;;;;;;;;;;;;;;;;;5062197;28;1044;-65
2022/07/06 04:37:53;;;;;;;;;;;;;;;;;;5061990;28;1245;-65
2022/07/06 04:40:19;;;;;;;;;;;;;;;;;;5062160;28;858;-65
2022/07/06 04:42:44;;;;;;;;;;;;;;;;;;5062402;28;1044;-65
2022/07/06 04:45:09;;;;;;;;;;;;;;;;;;5062095;28;818;-65
2022/07/06 04:47:35;;;;;;;;;;;;;;;;;;5061824;28;1898;-65
2022/07/06 04:50:01;;;;;;;;;;;;;;;;;;5062159;28;822;-65
2022/07/06 04:52:27;;;;;;;;;;;;;;;;;;5062016;28;810;-65
2022/07/06 04:54:52;;;;;;;;;;;;;;;;;;5062193;28;854;-65
2022/07/06 04:57:17;;;;;;;;;;;;;;;;;;5061525;28;1270;-65
2022/07/06 04:59:42;;;;;;;;;;;;;;;;;;5062230;28;981;-65
2022/07/06 05:02:07;;;;;;;;;;;;;;;;;;5061734;28;957;-65
2022/07/06 05:04:33;;;;;;;;;;;;;;;;;;5062329;28;798;-65
2022/07/06 05:06:58;;;;;;;;;;;;;;;;;;5061308;28;1894;-65
2022/07/06 05:09:23;;;;;;;;;;;;;;;;;;5061935;28;890;-65
2022/07/06 05:11:49;;;;;;;;;;;;;;;;;;5061841;28;795;-65
2022/07/06 05:14:14;;;;;;;;;;;;;;;;;;5060451;28;1294;-65
2022/07/06 05:16:39;;;;;;;;;;;;;;;;;;5061362;28;1184;-65
2022/07/06 05:19:04;;;;;;;;;;;;;;;;;;5061687;28;842;-65
2022/07/06 05:21:29;;;;;;;;;;;;;;;;;;5061692;28;1048;-65
2022/07/06 05:23:55;;;;;;;;;;;;;;;;;;5061433;28;866;-65
2022/07/06 05:26:20;;;;;;;;;;;;;;;;;;5061308;28;1172;-65
2022/07/06 05:28:45;;;;;;;;;;;;;;;;;;5061374;28;1965;-64
2022/07/06 05:31:10;;;;;;;;;;;;;;;;;;5061704;28;870;-65
2022/07/06 05:33:35;;;;;;;;;;;;;;;;;;5061149;28;981;-65
2022/07/06 05:36:01;;;;;;;;;;;;;;;;;;5061338;28;898;-65
2022/07/06 05:38:26;;;;;;;;;;;;;;;;;;5060966;28;1189;-65
2022/07/06 05:40:51;;;;;;;;;;;;;;;;;;5061416;28;831;-65
2022/07/06 05:43:17;;;;;;;;;;;;;;;;;;5061357;28;782;-65
2022/07/06 05:45:42;;;;;;;;;;;;;;;;;;5061413;28;853;-65
2022/07/06 05:50:51;;;;;;;;;;;;;;;;;;5061128;28;640;-65
2022/07/06 05:53:16;;;;;;;;;;;;;;;;;;5061128;28;1170;-64
2022/07/06 05:55:41;;;;;;;;;;;;;;;;;;5061072;28;913;-65
2022/07/06 05:58:07;;;;;;;;;;;;;;;;;;5060778;28;1247;-65
2022/07/06 06:00:32;;;;;;;;;;;;;;;;;;5060835;28;861;-65
2022/07/06 06:02:58;;;;;;;;;;;;;;;;;;5060346;28;846;-65
2022/07/06 06:05:23;;;;;;;;;;;;;;;;;;5060822;28;861;-65
2022/07/06 06:07:50;;;;;;;;;;;;;;;;;;5060894;28;1898;-65
2022/07/06 06:10:16;;;;;;;;;;;;;;;;;;5060933;28;837;-65
2022/07/06 06:12:42;;;;;;;;;;;;;;;;;;5061046;28;822;-65
2022/07/06 06:15:07;;;;;;;;;;;;;;;;;;5060815;28;889;-65
2022/07/06 06:17:33;;;;;;;;;;;;;;;;;;5060604;28;1160;-64
2022/07/06 06:19:58;;;;;;;;;;;;;;;;;;5060817;28;992;-64
2022/07/06 06:22:24;;;;;;;;;;;;;;;;;;5060664;28;909;-65
2022/07/06 06:24:49;;;;;;;;;;;;;;;;;;5060889;28;794;-64
2022/07/06 06:27:15;;;;;;;;;;;;;;;;;;5060229;28;1973;-65
2022/07/06 06:29:41;;;;;;;;;;;;;;;;;;5060902;28;973;-65
2022/07/06 06:32:07;;;;;;;;;;;;;;;;;;5060602;28;881;-65
2022/07/06 06:34:32;;;;;;;;;;;;;;;;;;5060357;28;882;-65
2022/07/06 06:36:57;;;;;;;;;;;;;;;;;;5060354;28;1279;-65
2022/07/06 06:39:22;;;;;;;;;;;;;;;;;;5060822;28;1036;-65
2022/07/06 06:41:47;;;;;;;;;;;;;;;;;;5060518;28;914;-65
2022/07/06 06:44:14;;;;;;;;;;;;;;;;;;5060663;28;882;-65
2022/07/06 06:46:39;;;;;;;;;;;;;;;;;;5058928;28;1910;-65
2022/07/06 06:49:05;;;;;;;;;;;;;;;;;;5060339;28;783;-64
2022/07/06 06:51:30;;;;;;;;;;;;;;;;;;5060572;28;822;-65
2022/07/06 06:53:55;;;;;;;;;;;;;;;;;;5060301;28;869;-65
2022/07/06 06:56:21;;;;;;;;;;;;;;;;;;5060127;28;1204;-65
2022/07/06 06:58:46;;;;;;;;;;;;;;;;;;5060323;28;870;-65
2022/07/06 07:01:11;;;;;;;;;;;;;;;;;;5060361;28;850;-65
2022/07/06 07:03:36;;;;;;;;;;;;;;;;;;5060052;28;795;-64
2022/07/06 07:06:01;;;;;;;;;;;;;;;;;;5060329;28;1275;-64
2022/07/06 07:08:26;;;;;;;;;;;;;;;;;;5059895;28;1898;-65
2022/07/06 07:10:52;;;;;;;;;;;;;;;;;;5060480;28;794;-64
2022/07/06 07:13:17;;;;;;;;;;;;;;;;;;5060164;28;802;-65
2022/07/06 07:15:42;;;;;;;;;;;;;;;;;;5061609;28;775;-65
2022/07/06 07:18:08;;;;;;;;;;;;;;;;;;5063384;28;1180;-64
2022/07/06 07:20:33;;;;;;;;;;;;;;;;;;5063480;28;791;-65
2022/07/06 07:22:59;;;;;;;;;;;;;;;;;;5063685;28;819;-64
2022/07/06 07:25:24;;;;;;;;;;;;;;;;;;5063276;28;949;-64
2022/07/06 07:27:49;;;;;;;;;;;;;;;;;;5063297;28;1972;-64
2022/07/06 07:30:14;;;;;;;;;;;;;;;;;;5063307;28;846;-64
2022/07/06 07:32:43;;;;;;;;;;;;;;;;;;5063442;28;980;-65
2022/07/06 07:35:08;;;;;;;;;;;;;;;;;;5062919;28;996;-65
2022/07/06 07:37:33;;;;;;;;;;;;;;;;;;5063038;28;1303;-65
2022/07/06 07:39:59;;;;;;;;;;;;;;;;;;5063318;28;826;-65
2022/07/06 07:42:24;;;;;;;;;;;;;;;;;;5063299;28;846;-65
2022/07/06 07:44:49;;;;;;;;;;;;;;;;;;5063101;28;929;-65
2022/07/06 07:47:14;;;;;;;;;;;;;;;;;;5062532;28;1982;-64
2022/07/06 07:49:39;;;;;;;;;;;;;;;;;;5063272;28;932;-64
2022/07/06 07:52:05;;;;;;;;;;;;;;;;;;5062988;28;834;-64
2022/07/06 07:54:31;;;;;;;;;;;;;;;;;;5063147;28;984;-64
2022/07/06 07:56:56;;;;;;;;;;;;;;;;;;5062563;28;1267;-64
2022/07/06 07:59:22;;;;;;;;;;;;;;;;;;5063063;28;893;-64
2022/07/06 08:01:47;;;;;;;;;;;;;;;;;;5062767;28;841;-64
2022/07/06 08:04:12;;;;;;;;;;;;;;;;;;5062867;28;857;-64
2022/07/06 08:06:37;;;;;;;;;;;;;;;;;;5061000;28;1902;-64
2022/07/06 08:09:04;;;;;;;;;;;;;;;;;;5063013;28;866;-64
2022/07/06 08:11:29;;;;;;;;;;;;;;;;;;5062710;28;818;-64
2022/07/06 08:13:54;;;;;;;;;;;;;;;;;;5062540;28;1001;-64
2022/07/06 08:16:20;;;;;;;;;;;;;;;;;;5062372;28;1199;-64
2022/07/06 08:18:45;;;;;;;;;;;;;;;;;;5062473;28;1270;-64
2022/07/06 08:21:11;;;;;;;;;;;;;;;;;;5062682;28;893;-64
2022/07/06 08:23:36;;;;;;;;;;;;;;;;;;5062462;28;914;-64
2022/07/06 08:26:01;;;;;;;;;;;;;;;;;;5062046;28;906;-64
2022/07/06 08:28:27;;;;;;;;;;;;;;;;;;5062088;28;1898;-64
2022/07/06 08:30:54;;;;;;;;;;;;;;;;;;5062527;28;802;-64
2022/07/06 08:33:19;;;;;;;;;;;;;;;;;;5062087;28;826;-64
2022/07/06 08:35:44;;;;;;;;;;;;;;;;;;5062269;28;902;-65
2022/07/06 08:38:10;;;;;;;;;;;;;;;;;;5062005;28;1256;-64
2022/07/06 08:40:36;;;;;;;;;;;;;;;;;;5062145;28;838;-64
2022/07/06 08:43:01;;;;;;;;;;;;;;;;;;5062020;28;831;-64
2022/07/06 08:45:27;;;;;;;;;;;;;;;;;;5061921;28;862;-64
2022/07/06 08:47:53;;;;;;;;;;;;;;;;;;5061759;28;1893;-64
2022/07/06 08:50:20;;;;;;;;;;;;;;;;;;5061959;28;886;-64
2022/07/06 08:52:47;;;;;;;;;;;;;;;;;;5062093;28;829;-64
2022/07/06 08:55:12;;;;;;;;;;;;;;;;;;5061736;28;1091;-64
2022/07/06 08:57:39;;;;;;;;;;;;;;;;;;5061747;28;1180;-64
2022/07/06 09:00:05;;;;;;;;;;;;;;;;;;5061900;28;881;-64
2022/07/06 09:02:30;;;;;;;;;;;;;;;;;;5061997;28;1001;-64
2022/07/06 09:04:57;;;;;;;;;;;;;;;;;;5061753;28;1048;-64
2022/07/06 09:07:23;;;;;;;;;;;;;;;;;;5061635;28;1894;-64
2022/07/06 09:09:49;;;;;;;;;;;;;;;;;;5060570;28;1306;-64
2022/07/06 09:12:14;;;;;;;;;;;;;;;;;;5061797;28;988;-64
2022/07/06 09:14:39;;;;;;;;;;;;;;;;;;5061812;28;1040;-64
2022/07/06 09:17:05;;;;;;;;;;;;;;;;;;5061336;28;1275;-64
2022/07/06 09:19:31;;;;;;;;;;;;;;;;;;5062000;28;828;-64
2022/07/06 09:21:56;;;;;;;;;;;;;;;;;;5061460;28;1675;-64
2022/07/06 09:24:21;;;;;;;;;;;;;;;;;;5061733;28;854;-64
2022/07/06 09:26:47;;;;;;;;;;;;;;;;;;5060854;28;1886;-64
2022/07/06 09:29:12;;;;;;;;;;;;;;;;;;5061791;28;838;-64
2022/07/06 09:31:37;;;;;;;;;;;;;;;;;;5061365;28;838;-64
2022/07/06 09:34:05;;;;;;;;;;;;;;;;;;5061494;28;961;-64
2022/07/06 09:36:36;;;;;;;;;;;;;;;;;;5061078;28;1326;-64
2022/07/06 09:39:14;;;;;;;;;;;;;;;;;;5060481;28;815;-64
2022/07/06 09:41:39;;;;;;;;;;;;;;;;;;5060072;28;873;-64
2022/07/06 09:44:04;;;;;;;;;;;;;;;;;;5061274;28;984;-64
2022/07/06 09:46:37;;;;;;;;;;;;;;;;;;5061429;28;1180;-64
2022/07/06 09:49:02;;;;;;;;;;;;;;;;;;5061078;28;1933;-64
2022/07/06 09:51:30;;;;;;;;;;;;;;;;;;5061316;28;854;-64
2022/07/06 09:53:57;;;;;;;;;;;;;;;;;;5061222;28;830;-64
2022/07/06 09:56:34;;;;;;;;;;;;;;;;;;5060774;28;1188;-64
2022/07/06 09:59:00;;;;;;;;;;;;;;;;;;5061137;28;909;-64
2022/07/06 10:01:29;;;;;;;;;;;;;;;;;;5061194;28;909;-64
2022/07/06 10:03:54;;;;;;;;;;;;;;;;;;5061150;28;830;-64
2022/07/06 10:06:19;;;;;;;;;;;;;;;;;;5060823;28;1178;-65
2022/07/06 10:08:45;;;;;;;;;;;;;;;;;;5060753;28;1969;-64
2022/07/06 10:11:14;;;;;;;;;;;;;;;;;;5060957;28;769;-64
2022/07/06 10:13:40;;;;;;;;;;;;;;;;;;5060909;28;841;-64
2022/07/06 10:16:05;;;;;;;;;;;;;;;;;;5061050;28;1283;-64
2022/07/06 10:18:30;;;;;;;;;;;;;;;;;;5060789;28;811;-63
2022/07/06 10:20:56;;;;;;;;;;;;;;;;;;5060712;28;1160;-64
2022/07/06 10:23:23;;;;;;;;;;;;;;;;;;5060906;28;834;-64
2022/07/06 10:25:48;;;;;;;;;;;;;;;;;;5060437;28;854;-64
2022/07/06 10:28:14;;;;;;;;;;;;;;;;;;5060393;28;1890;-64
2022/07/06 10:30:40;;;;;;;;;;;;;;;;;;5060802;28;787;-64
2022/07/06 10:33:05;;;;;;;;;;;;;;;;;;5060839;28;1227;-64
2022/07/06 10:35:31;;;;;;;;;;;;;;;;;;5060360;28;973;-64
2022/07/06 10:38:06;;;;;;;;;;;;;;;;;;5060421;28;1196;-64
2022/07/06 10:43:15;;;;;;;;;;;;;;;;;;5060709;28;609;-64
2022/07/06 10:45:43;;;;;;;;;;;;;;;;;;5060407;28;989;-64
2022/07/06 10:48:11;;;;;;;;;;;;;;;;;;5060263;28;1967;-64
2022/07/06 10:50:40;;;;;;;;;;;;;;;;;;5063490;28;830;-64
2022/07/06 10:53:16;;;;;;;;;;;;;;;;;;5062790;28;884;-64
2022/07/06 10:55:50;;;;;;;;;;;;;;;;;;5064150;28;881;-64
2022/07/06 10:58:33;;;;;;;;;;;;;;;;;;5063776;28;1334;-64
2022/07/06 11:01:00;;;;;;;;;;;;;;;;;;5063951;28;993;-64
2022/07/06 11:03:31;;;;;;;;;;;;;;;;;;5063666;28;893;-64
2022/07/06 11:06:16;;;;;;;;;;;;;;;;;;5063791;28;846;-64
2022/07/06 11:08:45;;;;;;;;;;;;;;;;;;5063685;28;1905;-64
2022/07/06 11:11:16;;;;;;;;;;;;;;;;;;5063692;28;941;-64
2022/07/06 11:13:42;;;;;;;;;;;;;;;;;;5063534;28;889;-65
2022/07/06 11:16:07;;;;;;;;;;;;;;;;;;5063539;28;1192;-64
2022/07/06 11:18:40;;;;;;;;;;;;;;;;;;5063306;28;992;-64
2022/07/06 11:21:15;;;;;;;;;;;;;;;;;;5063640;28;830;-64
2022/07/06 11:23:40;;;;;;;;;;;;;;;;;;5063409;28;1035;-64
2022/07/06 11:26:05;;;;;;;;;;;;;;;;;;5063288;28;1192;-64
2022/07/06 11:28:31;;;;;;;;;;;;;;;;;;5063119;28;1975;-64
2022/07/06 11:30:56;;;;;;;;;;;;;;;;;;5063705;28;826;-64
2022/07/06 11:33:28;;;;;;;;;;;;;;;;;;5063379;28;1011;-64
2022/07/06 11:36:10;;;;;;;;;;;;;;;;;;5063218;28;869;-64
2022/07/06 11:38:35;;;;;;;;;;;;;;;;;;5062925;28;945;-64
2022/07/06 11:41:00;;;;;;;;;;;;;;;;;;5063149;28;833;-64
2022/07/06 11:43:25;;;;;;;;;;;;;;;;;;5063262;28;1047;-65
2022/07/06 11:45:50;;;;;;;;;;;;;;;;;;5063347;28;795;-64
2022/07/06 11:48:15;;;;;;;;;;;;;;;;;;5062920;28;1972;-63
2022/07/06 11:50:41;;;;;;;;;;;;;;;;;;5062935;28;1009;-62
2022/07/06 11:53:07;;;;;;;;;;;;;;;;;;5063093;28;870;-62
2022/07/06 11:55:32;;;;;;;;;;;;;;;;;;5062819;28;894;-63
2022/07/06 11:57:59;;;;;;;;;;;;;;;;;;5062656;28;1233;-64
2022/07/06 12:00:24;;;;;;;;;;;;;;;;;;5062314;28;989;-64
2022/07/06 12:02:59;;;;;;;;;;;;;;;;;;5062770;28;822;-64
2022/07/06 12:05:31;;;;;;;;;;;;;;;;;;5062697;28;799;-64
2022/07/06 12:08:06;;;;;;;;;;;;;;;;;;5062240;28;1910;-64
2022/07/06 12:10:33;;;;;;;;;;;;;;;;;;5062670;28;865;-64
2022/07/06 12:13:04;;;;;;;;;;;;;;;;;;5062940;28;826;-64
2022/07/06 12:15:29;;;;;;;;;;;;;;;;;;5062704;28;1147;-64
2022/07/06 12:17:55;;;;;;;;;;;;;;;;;;5062359;28;1191;-64
2022/07/06 12:20:20;;;;;;;;;;;;;;;;;;5062739;28;857;-64
2022/07/06 12:22:45;;;;;;;;;;;;;;;;;;5062482;28;831;-64
2022/07/06 12:25:10;;;;;;;;;;;;;;;;;;5062652;28;825;-64
2022/07/06 12:27:35;;;;;;;;;;;;;;;;;;5061988;28;1977;-64
2022/07/06 12:30:11;;;;;;;;;;;;;;;;;;5062639;28;791;-64
2022/07/06 12:32:36;;;;;;;;;;;;;;;;;;5062321;28;883;-64
2022/07/06 12:35:02;;;;;;;;;;;;;;;;;;5062308;28;1016;-64
2022/07/06 12:37:27;;;;;;;;;;;;;;;;;;5062006;28;1192;-64
2022/07/06 12:39:52;;;;;;;;;;;;;;;;;;5062483;28;1016;-64
2022/07/06 12:42:18;;;;;;;;;;;;;;;;;;5062153;28;806;-64
2022/07/06 12:44:43;;;;;;;;;;;;;;;;;;5062520;28;1036;-64
2022/07/06 12:47:09;;;;;;;;;;;;;;;;;;5061878;28;1963;-64
2022/07/06 12:49:37;;;;;;;;;;;;;;;;;;5062034;28;910;-64
2022/07/06 12:52:08;;;;;;;;;;;;;;;;;;5062169;28;918;-64
2022/07/06 12:54:41;;;;;;;;;;;;;;;;;;5062067;28;866;-64
2022/07/06 12:57:08;;;;;;;;;;;;;;;;;;5061746;28;1279;-64
2022/07/06 12:59:34;;;;;;;;;;;;;;;;;;5061962;28;873;-64
2022/07/06 13:02:00;;;;;;;;;;;;;;;;;;5062018;28;917;-63
2022/07/06 13:04:26;;;;;;;;;;;;;;;;;;5062075;28;858;-63
2022/07/06 13:06:51;;;;;;;;;;;;;;;;;;5061448;28;1909;-64
2022/07/06 13:09:18;;;;;;;;;;;;;;;;;;5061790;28;814;-63
2022/07/06 13:11:43;;;;;;;;;;;;;;;;;;5061761;28;779;-64
2022/07/06 13:14:09;;;;;;;;;;;;;;;;;;5061641;28;811;-64
2022/07/06 13:16:34;;;;;;;;;;;;;;;;;;5061368;28;1184;-63
2022/07/06 13:19:00;;;;;;;;;;;;;;;;;;5061791;28;831;-64
2022/07/06 13:21:25;;;;;;;;;;;;;;;;;;5061760;28;890;-63
2022/07/06 13:23:50;;;;;;;;;;;;;;;;;;5061672;28;1032;-63
2022/07/06 13:26:16;;;;;;;;;;;;;;;;;;5061315;28;1196;-63
2022/07/06 13:28:41;;;;;;;;;;;;;;;;;;5061556;28;1910;-64
2022/07/06 13:31:06;;;;;;;;;;;;;;;;;;5061553;28;936;-64
2022/07/06 13:33:31;;;;;;;;;;;;;;;;;;5061625;28;829;-63
2022/07/06 13:35:57;;;;;;;;;;;;;;;;;;5061228;28;807;-63
2022/07/06 13:38:22;;;;;;;;;;;;;;;;;;5059827;28;1468;-63
2022/07/06 13:40:47;;;;;;;;;;;;;;;;;;5061432;28;882;-64
2022/07/06 13:43:12;;;;;;;;;;;;;;;;;;5061505;28;1036;-63
2022/07/06 13:45:37;;;;;;;;;;;;;;;;;;5061173;28;818;-64
2022/07/06 13:48:03;;;;;;;;;;;;;;;;;;5060917;28;1921;-63
2022/07/06 13:50:32;;;;;;;;;;;;;;;;;;5061503;28;818;-63
2022/07/06 13:52:57;;;;;;;;;;;;;;;;;;5061286;28;807;-64
2022/07/06 13:55:22;;;;;;;;;;;;;;;;;;5061290;28;874;-64
2022/07/06 13:57:48;;;;;;;;;;;;;;;;;;5060516;28;1255;-64
2022/07/06 14:00:14;;;;;;;;;;;;;;;;;;5061196;28;810;-63
2022/07/06 14:02:39;;;;;;;;;;;;;;;;;;5061255;28;850;-64
2022/07/06 14:05:05;;;;;;;;;;;;;;;;;;5061058;28;1060;-64
2022/07/06 14:07:30;;;;;;;;;;;;;;;;;;5060452;28;1959;-64
2022/07/06 14:09:55;;;;;;;;;;;;;;;;;;5061076;28;1032;-63
2022/07/06 14:12:23;;;;;;;;;;;;;;;;;;5060819;28;813;-63
2022/07/06 14:14:48;;;;;;;;;;;;;;;;;;5061056;28;791;-64
2022/07/06 14:17:13;;;;;;;;;;;;;;;;;;5060573;28;1178;-64
2022/07/06 14:19:39;;;;;;;;;;;;;;;;;;5060819;28;818;-63
2022/07/06 14:22:04;;;;;;;;;;;;;;;;;;5060849;28;1200;-63
2022/07/06 14:24:29;;;;;;;;;;;;;;;;;;5061900;28;886;-64
2022/07/06 14:26:54;;;;;;;;;;;;;;;;;;5064034;28;1886;-63
2022/07/06 14:29:19;;;;;;;;;;;;;;;;;;5064209;28;1036;-63
2022/07/06 14:31:47;;;;;;;;;;;;;;;;;;5064379;28;897;-63
2022/07/06 14:34:12;;;;;;;;;;;;;;;;;;5064235;28;857;-64
2022/07/06 14:36:38;;;;;;;;;;;;;;;;;;5064131;28;1801;-64
2022/07/06 14:39:03;;;;;;;;;;;;;;;;;;5064086;28;838;-64
2022/07/06 14:41:28;;;;;;;;;;;;;;;;;;5064335;28;842;-64
2022/07/06 14:43:53;;;;;;;;;;;;;;;;;;5064501;28;735;-64
2022/07/06 14:46:18;;;;;;;;;;;;;;;;;;5063930;28;1172;-64
2022/07/06 14:48:44;;;;;;;;;;;;;;;;;;5063983;28;1971;-64
2022/07/06 14:51:09;;;;;;;;;;;;;;;;;;5063867;28;917;-64
2022/07/06 14:53:34;;;;;;;;;;;;;;;;;;5064151;28;1062;-64
2022/07/06 14:55:59;;;;;;;;;;;;;;;;;;5063776;28;874;-63
2022/07/06 14:58:25;;;;;;;;;;;;;;;;;;5063854;28;1259;-64
2022/07/06 15:00:51;;;;;;;;;;;;;;;;;;5063701;28;815;-63
2022/07/06 15:03:16;;;;;;;;;;;;;;;;;;5063989;28;830;-64
2022/07/06 15:05:45;;;;;;;;;;;;;;;;;;5063658;28;870;-64
2022/07/06 15:08:11;;;;;;;;;;;;;;;;;;5063438;28;1894;-63
2022/07/06 15:10:36;;;;;;;;;;;;;;;;;;5063661;28;852;-64
2022/07/06 15:13:01;;;;;;;;;;;;;;;;;;5063827;28;861;-64
2022/07/06 15:15:27;;;;;;;;;;;;;;;;;;5063699;28;839;-63
2022/07/06 15:17:52;;;;;;;;;;;;;;;;;;5063311;28;1275;-64
2022/07/06 15:20:17;;;;;;;;;;;;;;;;;;5063600;28;921;-64
2022/07/06 15:22:42;;;;;;;;;;;;;;;;;;5063452;28;850;-63
2022/07/06 15:25:08;;;;;;;;;;;;;;;;;;5063639;28;832;-64
2022/07/06 15:27:33;;;;;;;;;;;;;;;;;;5063187;28;1985;-64
2022/07/06 15:29:58;;;;;;;;;;;;;;;;;;5063425;28;1122;-64
2022/07/06 15:32:24;;;;;;;;;;;;;;;;;;5063276;28;798;-64
2022/07/06 15:34:49;;;;;;;;;;;;;;;;;;5063527;28;874;-63
2022/07/06 15:37:14;;;;;;;;;;;;;;;;;;5061729;28;1204;-64
2022/07/06 15:39:39;;;;;;;;;;;;;;;;;;5063323;28;825;-63
2022/07/06 15:42:05;;;;;;;;;;;;;;;;;;5063433;28;799;-64
2022/07/06 15:44:30;;;;;;;;;;;;;;;;;;5063042;28;886;-63
2022/07/06 15:46:55;;;;;;;;;;;;;;;;;;5062985;28;1195;-63
2022/07/06 15:49:21;;;;;;;;;;;;;;;;;;5062947;28;1894;-63
2022/07/06 15:51:46;;;;;;;;;;;;;;;;;;5063266;28;791;-64
2022/07/06 15:54:12;;;;;;;;;;;;;;;;;;5063025;28;811;-64
2022/07/06 15:56:38;;;;;;;;;;;;;;;;;;5062915;28;1176;-64
2022/07/06 15:59:04;;;;;;;;;;;;;;;;;;5062544;28;785;-64
2022/07/06 16:01:29;;;;;;;;;;;;;;;;;;5063018;28;992;-64
2022/07/06 16:03:54;;;;;;;;;;;;;;;;;;5062806;28;881;-64
2022/07/06 16:06:20;;;;;;;;;;;;;;;;;;5062813;28;1149;-64
2022/07/06 16:08:46;;;;;;;;;;;;;;;;;;5062752;28;1886;-64
2022/07/06 16:11:12;;;;;;;;;;;;;;;;;;5062719;28;965;-64
2022/07/06 16:13:37;;;;;;;;;;;;;;;;;;5062848;28;1051;-64
2022/07/06 16:16:04;;;;;;;;;;;;;;;;;;5062756;28;1180;-64
2022/07/06 16:18:29;;;;;;;;;;;;;;;;;;5063726;28;1005;-63
2022/07/06 16:20:54;;;;;;;;;;;;;;;;;;5066583;28;882;-63
2022/07/06 16:23:19;;;;;;;;;;;;;;;;;;5062894;28;799;-64
2022/07/06 16:25:45;;;;;;;;;;;;;;;;;;5062465;28;854;-64
2022/07/06 16:28:10;;;;;;;;;;;;;;;;;;5062363;28;1955;-64
2022/07/06 16:30:35;;;;;;;;;;;;;;;;;;5062641;28;857;-64
2022/07/06 16:33:00;;;;;;;;;;;;;;;;;;5062707;28;854;-64
2022/07/06 16:35:29;;;;;;;;;;;;;;;;;;5062368;28;1075;-63
2022/07/06 16:37:55;;;;;;;;;;;;;;;;;;5062079;28;1271;-64
2022/07/06 16:40:20;;;;;;;;;;;;;;;;;;5062331;28;906;-63
2022/07/06 16:42:45;;;;;;;;;;;;;;;;;;5062154;28;933;-63
2022/07/06 16:45:10;;;;;;;;;;;;;;;;;;5062333;28;799;-64
2022/07/06 16:47:37;;;;;;;;;;;;;;;;;;5060083;28;1910;-64
2022/07/06 16:50:03;;;;;;;;;;;;;;;;;;5062241;28;834;-64
2022/07/06 16:52:28;;;;;;;;;;;;;;;;;;5062042;28;930;-64
2022/07/06 16:54:54;;;;;;;;;;;;;;;;;;5062229;28;993;-64
2022/07/06 16:57:19;;;;;;;;;;;;;;;;;;5061462;28;1271;-64
2022/07/06 16:59:44;;;;;;;;;;;;;;;;;;5061931;28;851;-64
2022/07/06 17:02:09;;;;;;;;;;;;;;;;;;5061869;28;977;-64
2022/07/06 17:04:35;;;;;;;;;;;;;;;;;;5061998;28;929;-64
2022/07/06 17:07:00;;;;;;;;;;;;;;;;;;5061597;28;1890;-64
2022/07/06 17:09:25;;;;;;;;;;;;;;;;;;5061733;28;774;-64
2022/07/06 17:11:50;;;;;;;;;;;;;;;;;;5061970;28;881;-64